X  Fermer Données météorologiques d'aviation de Metar     LGRX Patras Araxos Agamemnon Airport
Température
14°C Température
13°C Point de rosée
94% Humidité



Vent
0 KM/H
0 MPH
0 M/S
0 KTS



Calme
N
Conditions actuelles

Plutôt nuageux Plutôt nuageux
Pression 1016.92 (hPa) - 30.03 (inHg)
Visibilité 6.2 (mile) - 10 (km)
Aéroport
Code de l'aéroport LGRX

Emplacement: Patras Araxos Agamemnon Airport
Distance: 108 (km)

Metar:
LGRX 082050Z 00000KT 9999 BKN080 14/13 Q1017

Temps: 08-12-2022 22:50 EET